Time,TemperatureF,DewpointF,PressureIn,WindDirection,WindDirectionDegrees,WindSpeedMPH,WindSpeedGustMPH,Humidity,HourlyPrecipIn,Conditions,Clouds,dailyrainin,SoftwareType,DateUTC
2013-05-16 00:00:00,45.8,35.1,30.05,SSE,166,4.0,22.0,66,0.00,,,0.00,Wunderground v.1.15,2013-05-16 03:00:00,
2013-05-16 00:10:00,45.0,35.4,30.04,SE,136,3.0,22.0,69,0.00,,,0.00,Wunderground v.1.15,2013-05-16 03:10:00,
2013-05-16 00:20:00,44.2,37.8,30.04,SE,144,2.0,22.0,78,0.00,,,0.00,Wunderground v.1.15,2013-05-16 03:20:00,
2013-05-16 00:30:00,43.3,38.5,30.04,SSE,148,1.0,22.0,83,0.00,,,0.00,Wunderground v.1.15,2013-05-16 03:30:00,
2013-05-16 00:40:00,42.8,38.6,30.04,South,179,1.0,22.0,85,0.00,,,0.00,Wunderground v.1.15,2013-05-16 03:40:00,
2013-05-16 01:00:00,42.3,37.8,30.04,SSE,155,1.0,22.0,84,0.00,,,0.00,Wunderground v.1.15,2013-05-16 04:00:00,
2013-05-16 01:10:00,42.2,38.3,30.03,SSE,158,1.0,22.0,86,0.00,,,0.00,Wunderground v.1.15,2013-05-16 04:10:00,
2013-05-16 01:20:00,41.9,38.3,30.03,SSE,149,1.0,22.0,87,0.00,,,0.00,Wunderground v.1.15,2013-05-16 04:20:00,
2013-05-16 01:30:00,41.3,38.0,30.03,SSE,152,1.0,22.0,88,0.00,,,0.00,Wunderground v.1.15,2013-05-16 04:30:00,
2013-05-16 01:40:00,40.8,37.8,30.03,SSE,159,1.0,22.0,89,0.00,,,0.00,Wunderground v.1.15,2013-05-16 04:40:00,
2013-05-16 01:50:00,40.4,37.7,30.03,SSE,157,1.0,22.0,90,0.00,,,0.00,Wunderground v.1.15,2013-05-16 04:50:00,
2013-05-16 02:00:00,40.3,37.6,30.03,SE,143,1.0,1.0,90,0.00,,,0.00,Wunderground v.1.15,2013-05-16 05:00:00,
2013-05-16 02:10:00,40.1,37.1,30.02,ESE,122,0.0,22.0,89,0.00,,,0.00,Wunderground v.1.15,2013-05-16 05:10:00,
2013-05-16 02:20:00,40.4,37.4,30.02,SE,129,1.0,22.0,89,0.00,,,0.00,Wunderground v.1.15,2013-05-16 05:20:00,
2013-05-16 02:30:00,40.6,37.6,30.01,SE,139,0.0,22.0,89,0.00,,,0.00,Wunderground v.1.15,2013-05-16 05:30:00,
2013-05-16 02:40:00,40.5,37.8,30.01,South,177,1.0,22.0,90,0.00,,,0.00,Wunderground v.1.15,2013-05-16 05:40:00,
2013-05-16 02:50:00,40.7,38.3,30.01,ESE,117,1.0,22.0,91,0.00,,,0.00,Wunderground v.1.15,2013-05-16 05:50:00,
2013-05-16 03:00:00,40.9,38.5,30.00,SSE,156,1.0,22.0,91,0.00,,,0.00,Wunderground v.1.15,2013-05-16 06:00:00,
2013-05-16 03:10:00,40.8,38.7,30.00,SSE,155,1.0,22.0,92,0.00,,,0.00,Wunderground v.1.15,2013-05-16 06:10:00,
2013-05-16 03:20:00,40.7,38.6,29.99,East,100,0.0,22.0,92,0.00,,,0.00,Wunderground v.1.15,2013-05-16 06:20:00,
2013-05-16 03:30:00,40.8,38.7,29.98,ESE,108,0.0,22.0,92,0.00,,,0.00,Wunderground v.1.15,2013-05-16 06:30:00,
2013-05-16 03:40:00,40.7,38.8,29.98,SSE,160,0.0,22.0,93,0.00,,,0.00,Wunderground v.1.15,2013-05-16 06:40:00,
2013-05-16 03:50:00,40.8,38.9,29.97,SSE,148,2.0,2.0,93,0.00,,,0.00,Wunderground v.1.15,2013-05-16 06:50:00,
2013-05-16 04:00:00,41.2,39.1,29.97,SSE,167,2.0,2.0,92,0.00,,,0.00,Wunderground v.1.15,2013-05-16 07:00:00,
2013-05-16 04:10:00,41.6,39.2,29.96,SE,139,3.0,3.0,91,0.00,,,0.00,Wunderground v.1.15,2013-05-16 07:10:00,
2013-05-16 04:20:00,41.8,39.1,29.96,SE,140,2.0,22.0,90,0.00,,,0.00,Wunderground v.1.15,2013-05-16 07:20:00,
2013-05-16 04:30:00,42.1,39.1,29.96,SE,139,3.0,22.0,89,0.00,,,0.00,Wunderground v.1.15,2013-05-16 07:30:00,
2013-05-16 04:40:00,42.1,38.8,29.96,SE,141,2.0,22.0,88,0.00,,,0.00,Wunderground v.1.15,2013-05-16 07:40:00,
2013-05-16 04:50:00,42.2,38.6,29.96,South,177,1.0,22.0,87,0.00,,,0.00,Wunderground v.1.15,2013-05-16 07:50:00,
2013-05-16 05:00:00,42.3,38.4,29.96,SSE,148,2.0,22.0,86,0.00,,,0.00,Wunderground v.1.15,2013-05-16 08:00:00,
2013-05-16 05:10:00,42.3,38.1,29.96,SSE,160,2.0,22.0,85,0.00,,,0.00,Wunderground v.1.15,2013-05-16 08:10:00,
2013-05-16 05:20:00,42.4,38.2,29.96,ESE,121,2.0,22.0,85,0.00,,,0.00,Wunderground v.1.15,2013-05-16 08:20:00,
2013-05-16 05:30:00,42.7,38.2,29.96,SE,135,2.0,22.0,84,0.00,,,0.00,Wunderground v.1.15,2013-05-16 08:30:00,
2013-05-16 05:40:00,42.9,38.1,29.97,South,173,2.0,22.0,83,0.00,,,0.00,Wunderground v.1.15,2013-05-16 08:40:00,
2013-05-16 05:50:00,43.5,38.1,29.97,SSE,167,3.0,22.0,81,0.00,,,0.00,Wunderground v.1.15,2013-05-16 08:50:00,
2013-05-16 06:00:00,44.2,38.1,29.97,SE,139,3.0,3.0,79,0.00,,,0.00,Wunderground v.1.15,2013-05-16 09:00:00,
2013-05-16 06:10:00,44.3,38.2,29.97,South,176,3.0,22.0,79,0.00,,,0.00,Wunderground v.1.15,2013-05-16 09:10:00,
2013-05-16 06:20:00,44.5,38.4,29.96,SE,131,4.0,4.0,79,0.00,,,0.00,Wunderground v.1.15,2013-05-16 09:20:00,
2013-05-16 06:30:00,44.5,38.4,29.97,South,179,3.0,22.0,79,0.00,,,0.00,Wunderground v.1.15,2013-05-16 09:30:00,
2013-05-16 06:40:00,44.5,38.4,29.97,SSE,151,4.0,22.0,79,0.00,,,0.00,Wunderground v.1.15,2013-05-16 09:40:00,
2013-05-16 06:50:00,44.5,38.4,29.96,South,190,4.0,22.0,79,0.00,,,0.00,Wunderground v.1.15,2013-05-16 09:50:00,
2013-05-16 07:00:00,44.6,38.5,29.96,South,179,5.0,22.0,79,0.00,,,0.00,Wunderground v.1.15,2013-05-16 10:00:00,
2013-05-16 07:10:00,44.8,38.7,29.96,South,174,5.0,22.0,79,0.00,,,0.00,Wunderground v.1.15,2013-05-16 10:10:00,
2013-05-16 07:20:00,44.9,38.8,29.96,South,173,5.0,22.0,79,0.00,,,0.00,Wunderground v.1.15,2013-05-16 10:20:00,
2013-05-16 07:30:00,45.1,39.0,29.96,SSE,154,5.0,22.0,79,0.00,,,0.00,Wunderground v.1.15,2013-05-16 10:30:00,
2013-05-16 07:40:00,45.4,39.3,29.95,SSE,155,5.0,22.0,79,0.00,,,0.00,Wunderground v.1.15,2013-05-16 10:40:00,
2013-05-16 07:50:00,45.7,39.9,29.95,SSE,154,4.0,22.0,80,0.00,,,0.00,Wunderground v.1.15,2013-05-16 10:50:00,
2013-05-16 08:00:00,46.2,40.0,29.95,South,175,4.0,22.0,79,0.00,,,0.00,Wunderground v.1.15,2013-05-16 11:00:00,
2013-05-16 08:10:00,47.0,39.5,29.94,South,183,6.0,6.0,75,0.00,,,0.00,Wunderground v.1.15,2013-05-16 11:10:00,
2013-05-16 08:20:00,47.3,39.4,29.94,SSE,167,7.0,7.0,74,0.00,,,0.00,Wunderground v.1.15,2013-05-16 11:20:00,
2013-05-16 08:30:00,47.2,39.3,29.94,SSE,158,5.0,5.0,74,0.00,,,0.00,Wunderground v.1.15,2013-05-16 11:30:00,
2013-05-16 08:40:00,47.0,39.5,29.94,SE,136,5.0,22.0,75,0.00,,,0.00,Wunderground v.1.15,2013-05-16 11:40:00,
2013-05-16 08:50:00,47.0,39.8,29.94,ESE,105,6.0,22.0,76,0.00,,,0.00,Wunderground v.1.15,2013-05-16 11:50:00,
2013-05-16 09:00:00,47.0,39.5,29.93,South,181,6.0,6.0,75,0.00,,,0.00,Wunderground v.1.15,2013-05-16 12:00:00,
2013-05-16 09:10:00,47.2,39.7,29.93,SSE,150,6.0,6.0,75,0.00,,,0.00,Wunderground v.1.15,2013-05-16 12:10:00,
2013-05-16 09:20:00,47.4,39.5,29.92,SE,136,5.0,22.0,74,0.00,,,0.00,Wunderground v.1.15,2013-05-16 12:20:00,
2013-05-16 09:30:00,47.6,40.1,29.92,ESE,117,6.0,22.0,75,0.00,,,0.00,Wunderground v.1.15,2013-05-16 12:30:00,
2013-05-16 09:40:00,47.5,40.6,29.91,SE,128,5.0,5.0,77,0.00,,,0.00,Wunderground v.1.15,2013-05-16 12:40:00,
2013-05-16 09:50:00,47.0,41.1,29.90,East,79,5.0,5.0,80,0.00,,,0.00,Wunderground v.1.15,2013-05-16 12:50:00,
2013-05-16 10:00:00,46.8,41.3,29.89,East,101,6.0,6.0,81,0.00,,,0.00,Wunderground v.1.15,2013-05-16 13:00:00,
2013-05-16 10:10:00,47.2,41.3,29.89,East,98,6.0,6.0,80,0.00,,,0.00,Wunderground v.1.15,2013-05-16 13:10:00,
2013-05-16 10:20:00,47.2,41.3,29.88,East,81,6.0,22.0,80,0.00,,,0.00,Wunderground v.1.15,2013-05-16 13:20:00,
2013-05-16 10:30:00,47.1,41.6,29.88,East,84,7.0,7.0,81,0.00,,,0.00,Wunderground v.1.15,2013-05-16 13:30:00,
2013-05-16 10:40:00,46.9,41.7,29.88,SE,131,8.0,8.0,82,0.00,,,0.00,Wunderground v.1.15,2013-05-16 13:40:00,
2013-05-16 10:50:00,46.6,41.7,29.87,East,96,8.0,8.0,83,0.00,,,0.00,Wunderground v.1.15,2013-05-16 13:50:00,
2013-05-16 11:00:00,46.4,41.5,29.87,East,81,8.0,8.0,83,0.00,,,0.00,Wunderground v.1.15,2013-05-16 14:00:00,
2013-05-16 11:10:00,46.4,41.8,29.86,East,99,7.0,22.0,84,0.00,,,0.00,Wunderground v.1.15,2013-05-16 14:10:00,
2013-05-16 11:20:00,46.5,41.9,29.86,East,101,8.0,8.0,84,0.00,,,0.00,Wunderground v.1.15,2013-05-16 14:20:00,
2013-05-16 11:30:00,46.7,41.8,29.85,ESE,103,9.0,22.0,83,0.00,,,0.00,Wunderground v.1.15,2013-05-16 14:30:00,
2013-05-16 11:40:00,46.8,41.9,29.85,East,96,9.0,9.0,83,0.00,,,0.00,Wunderground v.1.15,2013-05-16 14:40:00,
2013-05-16 11:50:00,46.7,41.8,29.84,East,86,11.0,11.0,83,0.00,,,0.00,Wunderground v.1.15,2013-05-16 14:50:00,
2013-05-16 12:00:00,46.7,41.8,29.84,ENE,63,8.0,22.0,83,0.00,,,0.00,Wunderground v.1.15,2013-05-16 15:00:00,
2013-05-16 12:10:00,47.0,42.1,29.83,East,82,9.0,22.0,83,0.00,,,0.00,Wunderground v.1.15,2013-05-16 15:10:00,
2013-05-16 12:20:00,47.2,42.3,29.83,East,84,8.0,22.0,83,0.00,,,0.00,Wunderground v.1.15,2013-05-16 15:20:00,
2013-05-16 12:30:00,47.3,42.4,29.83,East,97,7.0,22.0,83,0.00,,,0.00,Wunderground v.1.15,2013-05-16 15:30:00,
2013-05-16 12:40:00,47.5,42.6,29.83,ESE,105,7.0,22.0,83,0.00,,,0.00,Wunderground v.1.15,2013-05-16 15:40:00,
2013-05-16 12:50:00,47.9,43.0,29.83,East,99,7.0,22.0,83,0.00,,,0.00,Wunderground v.1.15,2013-05-16 15:50:00,
2013-05-16 13:00:00,48.2,43.0,29.82,ENE,57,7.0,7.0,82,0.00,,,0.00,Wunderground v.1.15,2013-05-16 16:00:00,
2013-05-16 13:10:00,48.5,43.6,29.82,SE,146,6.0,22.0,83,0.00,,,0.00,Wunderground v.1.15,2013-05-16 16:10:00,
2013-05-16 13:20:00,49.0,44.1,29.81,East,96,6.0,22.0,83,0.00,,,0.00,Wunderground v.1.15,2013-05-16 16:20:00,
2013-05-16 13:30:00,49.3,44.4,29.81,SE,127,6.0,22.0,83,0.00,,,0.00,Wunderground v.1.15,2013-05-16 16:30:00,
2013-05-16 13:40:00,49.8,45.2,29.81,SE,136,5.0,5.0,84,0.00,,,0.00,Wunderground v.1.15,2013-05-16 16:40:00,
2013-05-16 13:50:00,50.3,45.6,29.81,ESE,107,4.0,4.0,84,0.00,,,0.00,Wunderground v.1.15,2013-05-16 16:50:00,
2013-05-16 14:00:00,50.9,46.6,29.81,SSW,194,6.0,6.0,85,0.00,,,0.00,Wunderground v.1.15,2013-05-16 17:00:00,
2013-05-16 14:10:00,51.2,46.8,29.80,SW,221,7.0,22.0,85,0.00,,,0.00,Wunderground v.1.15,2013-05-16 17:10:00,
2013-05-16 14:20:00,51.4,47.0,29.80,ESE,114,7.0,22.0,85,0.00,,,0.00,Wunderground v.1.15,2013-05-16 17:20:00,
2013-05-16 14:30:00,51.4,47.0,29.80,SSE,165,8.0,8.0,85,0.00,,,0.00,Wunderground v.1.15,2013-05-16 17:30:00,
2013-05-16 14:40:00,51.3,46.9,29.79,SE,124,8.0,22.0,85,0.00,,,0.00,Wunderground v.1.15,2013-05-16 17:40:00,
2013-05-16 14:50:00,51.4,47.4,29.79,South,184,8.0,8.0,86,0.00,,,0.00,Wunderground v.1.15,2013-05-16 17:50:00,
2013-05-16 15:00:00,51.5,47.5,29.79,ESE,121,8.0,8.0,86,0.00,,,0.00,Wunderground v.1.15,2013-05-16 18:00:00,
2013-05-16 15:10:00,51.7,47.6,29.79,SE,129,6.0,6.0,86,0.00,,,0.00,Wunderground v.1.15,2013-05-16 18:10:00,
2013-05-16 15:20:00,51.5,47.5,29.80,ESE,114,6.0,22.0,86,0.00,,,0.00,Wunderground v.1.15,2013-05-16 18:20:00,
2013-05-16 15:30:00,51.6,47.5,29.80,South,191,7.0,7.0,86,0.00,,,0.00,Wunderground v.1.15,2013-05-16 18:30:00,
2013-05-16 15:40:00,51.7,48.0,29.80,South,181,7.0,7.0,87,0.00,,,0.00,Wunderground v.1.15,2013-05-16 18:40:00,
2013-05-16 15:50:00,51.8,48.1,29.80,South,179,6.0,22.0,87,0.00,,,0.00,Wunderground v.1.15,2013-05-16 18:50:00,
2013-05-16 16:00:00,52.0,48.3,29.79,SE,141,6.0,6.0,87,0.00,,,0.00,Wunderground v.1.15,2013-05-16 19:00:00,
2013-05-16 16:10:00,52.5,48.4,29.79,SSE,149,6.0,22.0,86,0.00,,,0.00,Wunderground v.1.15,2013-05-16 19:10:00,
2013-05-16 16:20:00,52.7,48.3,29.78,South,191,6.0,22.0,85,0.00,,,0.00,Wunderground v.1.15,2013-05-16 19:20:00,
2013-05-16 16:30:00,52.9,48.5,29.78,SW,221,7.0,7.0,85,0.00,,,0.00,Wunderground v.1.15,2013-05-16 19:30:00,
2013-05-16 16:40:00,53.1,48.7,29.79,SSE,156,6.0,22.0,85,0.00,,,0.00,Wunderground v.1.15,2013-05-16 19:40:00,
2013-05-16 16:50:00,52.9,48.5,29.78,SSE,155,6.0,22.0,85,0.00,,,0.00,Wunderground v.1.15,2013-05-16 19:50:00,
2013-05-16 17:00:00,53.0,48.6,29.78,South,172,5.0,22.0,85,0.00,,,0.00,Wunderground v.1.15,2013-05-16 20:00:00,
2013-05-16 17:10:00,52.9,48.2,29.78,ESE,117,5.0,22.0,84,0.00,,,0.00,Wunderground v.1.15,2013-05-16 20:10:00,
2013-05-16 17:20:00,52.8,48.4,29.78,SSE,168,5.0,5.0,85,0.00,,,0.00,Wunderground v.1.15,2013-05-16 20:20:00,
2013-05-16 17:30:00,52.8,48.4,29.78,South,190,5.0,22.0,85,0.00,,,0.00,Wunderground v.1.15,2013-05-16 20:30:00,
2013-05-16 17:40:00,52.8,48.4,29.78,SE,145,5.0,22.0,85,0.00,,,0.00,Wunderground v.1.15,2013-05-16 20:40:00,
2013-05-16 17:50:00,52.8,48.4,29.79,ESE,122,5.0,5.0,85,0.00,,,0.00,Wunderground v.1.15,2013-05-16 20:50:00,
2013-05-16 18:00:00,52.8,48.4,29.78,South,169,5.0,22.0,85,0.00,,,0.00,Wunderground v.1.15,2013-05-16 21:00:00,
2013-05-16 18:10:00,52.8,48.4,29.78,SSW,206,5.0,22.0,85,0.00,,,0.00,Wunderground v.1.15,2013-05-16 21:10:00,
2013-05-16 18:20:00,53.0,48.6,29.78,SE,126,4.0,4.0,85,0.00,,,0.00,Wunderground v.1.15,2013-05-16 21:20:00,
2013-05-16 18:30:00,52.7,48.3,29.77,SE,137,4.0,22.0,85,0.00,,,0.00,Wunderground v.1.15,2013-05-16 21:30:00,
2013-05-16 18:40:00,52.6,48.5,29.77,SE,146,4.0,22.0,86,0.00,,,0.00,Wunderground v.1.15,2013-05-16 21:40:00,
2013-05-16 18:50:00,53.2,49.1,29.77,SSW,209,4.0,22.0,86,0.00,,,0.00,Wunderground v.1.15,2013-05-16 21:50:00,
2013-05-16 19:00:00,53.7,49.3,29.77,SE,129,4.0,4.0,85,0.00,,,0.00,Wunderground v.1.15,2013-05-16 22:00:00,
2013-05-16 19:10:00,53.7,49.0,29.77,ESE,122,4.0,22.0,84,0.00,,,0.00,Wunderground v.1.15,2013-05-16 22:10:00,
2013-05-16 19:20:00,53.4,49.0,29.77,South,169,3.0,22.0,85,0.00,,,0.00,Wunderground v.1.15,2013-05-16 22:20:00,
2013-05-16 19:30:00,53.0,48.9,29.77,South,186,3.0,3.0,86,0.00,,,0.00,Wunderground v.1.15,2013-05-16 22:30:00,
2013-05-16 19:40:00,52.6,48.5,29.78,South,177,3.0,22.0,86,0.00,,,0.00,Wunderground v.1.15,2013-05-16 22:40:00,
2013-05-16 19:50:00,52.3,48.5,29.77,SE,136,3.0,3.0,87,0.00,,,0.00,Wunderground v.1.15,2013-05-16 22:50:00,
2013-05-16 20:00:00,51.9,48.5,29.78,SSE,156,2.0,2.0,88,0.00,,,0.00,Wunderground v.1.15,2013-05-16 23:00:00,
2013-05-16 20:10:00,51.5,48.1,29.78,SE,143,1.0,22.0,88,0.00,,,0.00,Wunderground v.1.15,2013-05-16 23:10:00,
2013-05-16 20:20:00,51.0,47.6,29.77,SSE,153,1.0,22.0,88,0.00,,,0.00,Wunderground v.1.15,2013-05-16 23:20:00,
2013-05-16 20:30:00,50.5,47.4,29.78,SE,139,1.0,22.0,89,0.00,,,0.00,Wunderground v.1.15,2013-05-16 23:30:00,
2013-05-16 20:40:00,50.1,47.3,29.78,South,186,1.0,22.0,90,0.00,,,0.00,Wunderground v.1.15,2013-05-16 23:40:00,
2013-05-16 20:50:00,49.8,47.3,29.79,SSW,194,1.0,22.0,91,0.00,,,0.00,Wunderground v.1.15,2013-05-16 23:50:00,
2013-05-16 21:00:00,49.6,47.1,29.79,SSE,150,1.0,22.0,91,0.00,,,0.00,Wunderground v.1.15,2013-05-17 00:00:00,
2013-05-16 21:10:00,48.7,46.2,29.79,South,174,1.0,1.0,91,0.00,,,0.00,Wunderground v.1.15,2013-05-17 00:10:00,
2013-05-16 21:20:00,48.1,45.9,29.79,SSE,160,0.0,22.0,92,0.00,,,0.00,Wunderground v.1.15,2013-05-17 00:20:00,
2013-05-16 21:30:00,48.3,46.4,29.80,South,191,1.0,22.0,93,0.00,,,0.00,Wunderground v.1.15,2013-05-17 00:30:00,
2013-05-16 21:40:00,48.4,46.5,29.80,South,186,2.0,2.0,93,0.00,,,0.00,Wunderground v.1.15,2013-05-17 00:40:00,
2013-05-16 21:50:00,48.3,46.4,29.80,South,177,2.0,2.0,93,0.00,,,0.00,Wunderground v.1.15,2013-05-17 00:50:00,
2013-05-16 22:00:00,47.9,46.0,29.80,South,172,1.0,22.0,93,0.00,,,0.00,Wunderground v.1.15,2013-05-17 01:00:00,
2013-05-16 22:10:00,47.8,46.2,29.80,South,173,2.0,22.0,94,0.00,,,0.00,Wunderground v.1.15,2013-05-17 01:10:00,
2013-05-16 22:20:00,48.0,46.4,29.80,South,186,2.0,22.0,94,0.00,,,0.00,Wunderground v.1.15,2013-05-17 01:20:00,
2013-05-16 22:30:00,47.9,46.3,29.80,SE,124,1.0,1.0,94,0.00,,,0.00,Wunderground v.1.15,2013-05-17 01:30:00,
2013-05-16 22:40:00,47.8,46.2,29.79,SE,143,0.0,22.0,94,0.00,,,0.00,Wunderground v.1.15,2013-05-17 01:40:00,
2013-05-16 22:50:00,48.0,46.4,29.78,ESE,116,0.0,22.0,94,0.00,,,0.00,Wunderground v.1.15,2013-05-17 01:50:00,
2013-05-16 23:00:00,47.8,46.2,29.78,South,174,1.0,1.0,94,0.00,,,0.00,Wunderground v.1.15,2013-05-17 02:00:00,
2013-05-16 23:10:00,47.8,46.4,29.77,SE,138,1.0,22.0,95,0.00,,,0.00,Wunderground v.1.15,2013-05-17 02:10:00,
2013-05-16 23:20:00,47.9,46.5,29.77,SE,127,1.0,22.0,95,0.00,,,0.00,Wunderground v.1.15,2013-05-17 02:20:00,
2013-05-16 23:30:00,47.9,46.5,29.77,SE,139,2.0,22.0,95,0.00,,,0.00,Wunderground v.1.15,2013-05-17 02:30:00,
2013-05-16 23:40:00,48.0,46.6,29.78,SE,134,3.0,3.0,95,0.00,,,0.00,Wunderground v.1.15,2013-05-17 02:40:00,
2013-05-16 23:50:00,48.2,46.8,29.78,SSE,152,3.0,22.0,95,0.00,,,0.00,Wunderground v.1.15,2013-05-17 02:50:00,